Time;durP1;ratioP1;P1;durP2;ratioP2;P2;SDS_P1;SDS_P2;PMS_P1;PMS_P2;Temp;Humidity;BMP_temperature;BMP_pressure;BME280_temperature;BME280_humidity;BME280_pressure;Samples;Min_cycle;Max_cycle;Signal;HPM_P1;HPM_P2
2023/12/22 00:00:02;;;;;;;14.95;4.68;;;;;;;;;;6164201;23;20191;-86
2023/12/22 00:02:28;;;;;;;23.80;5.47;;;;;;;;;;6165054;23;20020;-86
2023/12/22 00:04:54;;;;;;;22.38;4.85;;;;;;;;;;6164237;23;20121;-86
2023/12/22 00:07:21;;;;;;;23.13;5.57;;;;;;;;;;6164363;23;20460;-86
2023/12/22 00:09:47;;;;;;;20.02;4.75;;;;;;;;;;6164233;23;20111;-85
2023/12/22 00:12:13;;;;;;;27.67;5.82;;;;;;;;;;6164472;23;20052;-85
2023/12/22 00:14:40;;;;;;;19.65;4.25;;;;;;;;;;6165188;23;20020;-85
2023/12/22 00:17:06;;;;;;;21.00;5.53;;;;;;;;;;6164064;23;20056;-85
2023/12/22 00:19:32;;;;;;;20.92;5.78;;;;;;;;;;6164227;23;20016;-85
2023/12/22 00:21:58;;;;;;;21.35;5.20;;;;;;;;;;6164041;23;20107;-85
2023/12/22 00:24:25;;;;;;;26.08;5.45;;;;;;;;;;6164219;23;20106;-84
2023/12/22 00:26:51;;;;;;;22.00;6.13;;;;;;;;;;6164032;23;20445;-85
2023/12/22 00:29:17;;;;;;;24.85;5.88;;;;;;;;;;6163928;23;20166;-85
2023/12/22 00:31:43;;;;;;;14.27;3.85;;;;;;;;;;6163900;23;20016;-85
2023/12/22 00:34:09;;;;;;;19.70;5.07;;;;;;;;;;6163836;23;20074;-85
2023/12/22 00:36:35;;;;;;;19.23;5.55;;;;;;;;;;6164072;23;20453;-85
2023/12/22 00:39:01;;;;;;;17.55;3.67;;;;;;;;;;6164131;23;20027;-85
2023/12/22 00:41:27;;;;;;;10.25;2.97;;;;;;;;;;6188029;23;20075;-85
2023/12/22 00:43:53;;;;;;;12.52;2.97;;;;;;;;;;6164382;23;20083;-85
2023/12/22 00:46:20;;;;;;;18.25;3.95;;;;;;;;;;6164930;23;20021;-85
2023/12/22 00:48:46;;;;;;;16.85;3.40;;;;;;;;;;6189331;23;20326;-84
2023/12/22 00:51:12;;;;;;;15.82;3.92;;;;;;;;;;6164006;23;20095;-85
2023/12/22 00:53:38;;;;;;;17.45;5.32;;;;;;;;;;6163964;23;20024;-85
2023/12/22 00:56:06;;;;;;;20.48;4.57;;;;;;;;;;6164190;23;20345;-86
2023/12/22 00:58:32;;;;;;;17.80;4.50;;;;;;;;;;6164496;23;20076;-85
2023/12/22 01:00:58;;;;;;;18.67;4.22;;;;;;;;;;6164089;23;20099;-85
2023/12/22 01:03:24;;;;;;;23.77;6.05;;;;;;;;;;6163808;23;20025;-85
2023/12/22 01:05:50;;;;;;;19.08;4.65;;;;;;;;;;6163830;23;20020;-84
2023/12/22 01:08:16;;;;;;;23.33;5.97;;;;;;;;;;6164141;23;20484;-85
2023/12/22 01:10:42;;;;;;;25.83;5.45;;;;;;;;;;6163921;23;20017;-85
2023/12/22 01:13:08;;;;;;;31.55;7.00;;;;;;;;;;6163939;23;20078;-85
2023/12/22 01:15:34;;;;;;;28.17;5.47;;;;;;;;;;6163859;23;20017;-86
2023/12/22 01:18:00;;;;;;;20.40;5.55;;;;;;;;;;6164205;23;20039;-85
2023/12/22 01:20:27;;;;;;;28.10;5.70;;;;;;;;;;6163846;23;20087;-85
2023/12/22 01:22:53;;;;;;;19.45;3.78;;;;;;;;;;6164814;23;20052;-85
2023/12/22 01:25:22;;;;;;;8.68;2.65;;;;;;;;;;6164179;23;20028;-85
2023/12/22 01:27:52;;;;;;;15.43;3.67;;;;;;;;;;6164457;23;20031;-85
2023/12/22 01:30:20;;;;;;;17.15;4.85;;;;;;;;;;6165744;23;20025;-85
2023/12/22 01:32:46;;;;;;;14.82;4.40;;;;;;;;;;6166440;23;20416;-85
2023/12/22 01:35:12;;;;;;;20.88;4.53;;;;;;;;;;6164916;23;20023;-85
2023/12/22 01:37:39;;;;;;;24.63;5.35;;;;;;;;;;6165743;23;20100;-86
2023/12/22 01:40:05;;;;;;;18.25;5.85;;;;;;;;;;6165671;23;20021;-85
2023/12/22 01:42:31;;;;;;;17.00;4.63;;;;;;;;;;6166167;23;20021;-85
2023/12/22 01:44:57;;;;;;;20.30;4.63;;;;;;;;;;6166448;23;20078;-86
2023/12/22 01:47:24;;;;;;;18.35;4.63;;;;;;;;;;6165334;23;20355;-85
2023/12/22 01:49:51;;;;;;;16.73;4.72;;;;;;;;;;6165596;23;20020;-86
2023/12/22 01:52:17;;;;;;;18.13;4.30;;;;;;;;;;6166129;23;20854;-86
2023/12/22 01:54:43;;;;;;;20.83;4.60;;;;;;;;;;6165652;23;20020;-86
2023/12/22 01:57:10;;;;;;;15.95;5.57;;;;;;;;;;6165422;23;20055;-86
2023/12/22 01:59:36;;;;;;;15.88;4.30;;;;;;;;;;6165397;23;20020;-85
2023/12/22 02:02:03;;;;;;;11.43;3.90;;;;;;;;;;6165408;23;20020;-84
2023/12/22 02:04:30;;;;;;;12.23;3.50;;;;;;;;;;6165006;23;20020;-85
2023/12/22 02:06:59;;;;;;;11.52;3.55;;;;;;;;;;6189838;23;20021;-85
2023/12/22 02:09:25;;;;;;;16.13;3.45;;;;;;;;;;6165313;23;20067;-85
2023/12/22 02:11:51;;;;;;;16.27;3.88;;;;;;;;;;6164718;23;20017;-85
2023/12/22 02:14:21;;;;;;;22.35;4.47;;;;;;;;;;6164936;23;20016;-85
2023/12/22 02:16:51;;;;;;;19.75;4.13;;;;;;;;;;6164995;23;20020;-85
2023/12/22 02:19:23;;;;;;;20.35;5.22;;;;;;;;;;6165659;23;20025;-85
2023/12/22 02:22:05;;;;;;;26.10;5.38;;;;;;;;;;6164787;23;20422;-85
2023/12/22 02:24:32;;;;;;;36.30;6.68;;;;;;;;;;6164937;23;20349;-85
2023/12/22 02:27:21;;;;;;;23.17;4.95;;;;;;;;;;6165114;23;20028;-85
2023/12/22 02:29:50;;;;;;;26.25;6.13;;;;;;;;;;6147407;23;20024;-85
2023/12/22 02:32:25;;;;;;;14.38;3.75;;;;;;;;;;6164848;23;20025;-86
2023/12/22 02:34:53;;;;;;;9.80;3.27;;;;;;;;;;6164868;23;20095;-85
2023/12/22 02:37:20;;;;;;;15.10;3.97;;;;;;;;;;6164588;23;20353;-85
2023/12/22 02:39:47;;;;;;;14.23;3.70;;;;;;;;;;6164890;23;20016;-85
2023/12/22 02:42:14;;;;;;;15.75;3.53;;;;;;;;;;6164931;23;20021;-85
2023/12/22 02:44:40;;;;;;;14.93;4.00;;;;;;;;;;6189837;23;20477;-85
2023/12/22 02:47:06;;;;;;;15.85;3.78;;;;;;;;;;6189575;23;20461;-85
2023/12/22 02:49:32;;;;;;;13.40;3.25;;;;;;;;;;6165686;23;20025;-85
2023/12/22 02:51:58;;;;;;;13.98;3.83;;;;;;;;;;6165202;23;20021;-85
2023/12/22 02:54:24;;;;;;;7.05;3.13;;;;;;;;;;6164855;23;20024;-85
2023/12/22 02:56:50;;;;;;;17.75;3.58;;;;;;;;;;6164706;23;20052;-86
2023/12/22 02:59:19;;;;;;;17.92;4.22;;;;;;;;;;6164550;23;20016;-86
2023/12/22 03:01:46;;;;;;;14.00;3.90;;;;;;;;;;6164733;23;20025;-85
2023/12/22 03:04:12;;;;;;;15.57;3.70;;;;;;;;;;6164552;23;20027;-86
2023/12/22 03:06:38;;;;;;;23.88;4.68;;;;;;;;;;6164866;23;20020;-85
2023/12/22 03:09:06;;;;;;;17.65;4.05;;;;;;;;;;6165687;23;20028;-86
2023/12/22 03:11:32;;;;;;;14.45;4.40;;;;;;;;;;6165607;23;20332;-86
2023/12/22 03:13:58;;;;;;;16.52;3.90;;;;;;;;;;6164961;23;20060;-85
2023/12/22 03:16:27;;;;;;;8.95;3.75;;;;;;;;;;6164704;23;20020;-85
2023/12/22 03:18:53;;;;;;;21.38;4.72;;;;;;;;;;6165635;23;20059;-86
2023/12/22 03:21:19;;;;;;;20.08;4.60;;;;;;;;;;6164238;23;20020;-85
2023/12/22 03:23:45;;;;;;;13.35;3.33;;;;;;;;;;6164737;23;20591;-85
2023/12/22 03:26:11;;;;;;;13.90;3.60;;;;;;;;;;6164801;23;20062;-84
2023/12/22 03:28:38;;;;;;;19.58;3.50;;;;;;;;;;6189516;23;20021;-85
2023/12/22 03:31:06;;;;;;;12.52;3.85;;;;;;;;;;6164354;23;20107;-85
2023/12/22 03:33:32;;;;;;;24.98;4.57;;;;;;;;;;6164056;23;20048;-84
2023/12/22 03:35:58;;;;;;;19.52;5.07;;;;;;;;;;6164437;23;20349;-85
2023/12/22 03:38:24;;;;;;;18.40;4.63;;;;;;;;;;6164377;23;20075;-85
2023/12/22 03:40:50;;;;;;;21.08;4.45;;;;;;;;;;6164609;23;20464;-85
2023/12/22 03:43:16;;;;;;;14.55;4.72;;;;;;;;;;6164218;23;20028;-85
2023/12/22 03:45:42;;;;;;;16.75;5.00;;;;;;;;;;6164870;23;20529;-85
2023/12/22 03:48:09;;;;;;;15.57;4.82;;;;;;;;;;6189031;23;20062;-85
2023/12/22 03:50:35;;;;;;;17.90;4.22;;;;;;;;;;6164394;23;20099;-85
2023/12/22 03:53:01;;;;;;;20.00;4.63;;;;;;;;;;6164418;23;20025;-85
2023/12/22 03:55:27;;;;;;;23.10;4.55;;;;;;;;;;6164608;23;20099;-86
2023/12/22 03:57:53;;;;;;;17.13;4.22;;;;;;;;;;6163850;23;20357;-86
2023/12/22 04:00:22;;;;;;;19.70;4.05;;;;;;;;;;6164681;23;20044;-85
2023/12/22 04:02:48;;;;;;;22.17;4.68;;;;;;;;;;6164239;23;20028;-85
2023/12/22 04:05:17;;;;;;;23.45;6.57;;;;;;;;;;6163769;23;20021;-86
2023/12/22 04:07:43;;;;;;;21.13;5.22;;;;;;;;;;6164435;23;20021;-85
2023/12/22 04:10:09;;;;;;;21.85;5.53;;;;;;;;;;6164201;23;20039;-86
2023/12/22 04:12:36;;;;;;;19.48;4.65;;;;;;;;;;6164651;23;20025;-85
2023/12/22 04:15:03;;;;;;;22.70;4.78;;;;;;;;;;6164329;23;20024;-86
2023/12/22 04:17:29;;;;;;;19.17;4.85;;;;;;;;;;6164230;23;20020;-86
2023/12/22 04:19:55;;;;;;;16.15;4.68;;;;;;;;;;6164148;23;20066;-85
2023/12/22 04:22:21;;;;;;;19.73;3.95;;;;;;;;;;6164302;23;20031;-85
2023/12/22 04:24:47;;;;;;;15.65;4.35;;;;;;;;;;6163993;23;20020;-86
2023/12/22 04:27:13;;;;;;;16.00;4.03;;;;;;;;;;6163912;23;20039;-85
2023/12/22 04:29:39;;;;;;;11.68;4.32;;;;;;;;;;6164166;23;20060;-84
2023/12/22 04:32:05;;;;;;;15.45;3.88;;;;;;;;;;6163777;23;20414;-85
2023/12/22 04:34:31;;;;;;;15.60;4.70;;;;;;;;;;6164012;23;20091;-85
2023/12/22 04:36:57;;;;;;;20.77;4.70;;;;;;;;;;6163993;23;20048;-85
2023/12/22 04:39:24;;;;;;;13.95;4.75;;;;;;;;;;6164743;23;20020;-85
2023/12/22 04:41:50;;;;;;;16.02;4.07;;;;;;;;;;6164656;23;20020;-85
2023/12/22 04:44:16;;;;;;;17.90;4.30;;;;;;;;;;6164373;23;20029;-85
2023/12/22 04:46:42;;;;;;;22.38;3.65;;;;;;;;;;6163672;23;20079;-85
2023/12/22 04:49:08;;;;;;;15.68;3.95;;;;;;;;;;6164944;23;20428;-85
2023/12/22 04:51:34;;;;;;;12.70;3.65;;;;;;;;;;6188780;23;20027;-85
2023/12/22 04:54:00;;;;;;;12.60;3.95;;;;;;;;;;6164152;23;20016;-85
2023/12/22 04:56:27;;;;;;;28.42;5.32;;;;;;;;;;6163942;23;20020;-85
2023/12/22 04:58:53;;;;;;;18.70;4.90;;;;;;;;;;6164057;23;20028;-85
2023/12/22 05:01:19;;;;;;;11.30;4.05;;;;;;;;;;6164063;23;20028;-85
2023/12/22 05:03:45;;;;;;;15.90;3.80;;;;;;;;;;6164958;23;20035;-85
2023/12/22 05:06:11;;;;;;;16.75;4.13;;;;;;;;;;6166608;23;20163;-85
2023/12/22 05:08:37;;;;;;;16.35;3.35;;;;;;;;;;6166698;23;20444;-85
2023/12/22 05:11:06;;;;;;;18.17;3.92;;;;;;;;;;6165702;23;20021;-85
2023/12/22 05:13:32;;;;;;;17.20;3.90;;;;;;;;;;6165842;23;20322;-85
2023/12/22 05:15:58;;;;;;;15.65;2.88;;;;;;;;;;6165807;23;20020;-85
2023/12/22 05:18:27;;;;;;;17.52;5.43;;;;;;;;;;6166549;23;20109;-85
2023/12/22 05:20:54;;;;;;;18.02;5.47;;;;;;;;;;6165579;23;20086;-85
2023/12/22 05:23:20;;;;;;;15.10;4.05;;;;;;;;;;6165907;23;20020;-85
2023/12/22 05:25:46;;;;;;;21.27;4.60;;;;;;;;;;6165893;23;20024;-86
2023/12/22 05:28:15;;;;;;;18.35;4.28;;;;;;;;;;6165602;23;20063;-85
2023/12/22 05:30:41;;;;;;;22.13;5.15;;;;;;;;;;6190650;23;20021;-85
2023/12/22 05:33:07;;;;;;;17.88;4.78;;;;;;;;;;6166684;23;20095;-85
2023/12/22 05:35:36;;;;;;;11.75;3.08;;;;;;;;;;6165786;23;20032;-85
2023/12/22 05:38:05;;;;;;;13.90;3.90;;;;;;;;;;6167537;23;20086;-85
2023/12/22 05:40:32;;;;;;;12.68;4.20;;;;;;;;;;6165840;23;20028;-85
2023/12/22 05:43:00;;;;;;;14.52;3.05;;;;;;;;;;6165565;23;20449;-85
2023/12/22 05:45:26;;;;;;;19.90;3.92;;;;;;;;;;6166222;23;20021;-85
2023/12/22 05:47:53;;;;;;;16.42;3.78;;;;;;;;;;6165292;23;20091;-85
2023/12/22 05:50:22;;;;;;;13.98;3.13;;;;;;;;;;6165338;23;20461;-85
2023/12/22 05:52:51;;;;;;;17.55;7.60;;;;;;;;;;6165855;23;20040;-86
2023/12/22 05:55:17;;;;;;;13.55;3.30;;;;;;;;;;6190340;23;20083;-84
2023/12/22 05:57:43;;;;;;;14.27;3.70;;;;;;;;;;6165488;23;20063;-86
2023/12/22 06:00:11;;;;;;;14.40;3.65;;;;;;;;;;6166252;23;20437;-85
2023/12/22 06:02:37;;;;;;;11.55;3.72;;;;;;;;;;6165232;23;20369;-85
2023/12/22 06:05:04;;;;;;;15.27;3.60;;;;;;;;;;6165388;23;20433;-85
2023/12/22 06:07:33;;;;;;;11.40;2.70;;;;;;;;;;6165341;23;20484;-85
2023/12/22 06:10:09;;;;;;;9.98;3.10;;;;;;;;;;6165395;23;20100;-86
2023/12/22 06:12:35;;;;;;;;;;;;;;;;;;6166621;23;20032;-84
2023/12/22 06:15:04;;;;;;;12.48;3.05;;;;;;;;;;6165184;23;20284;-87
2023/12/22 06:17:31;;;;;;;13.52;3.28;;;;;;;;;;6165691;23;20048;-84
2023/12/22 06:19:57;;;;;;;10.95;3.17;;;;;;;;;;6165512;23;20029;-84
2023/12/22 06:22:23;;;;;;;10.98;2.97;;;;;;;;;;6190279;23;20024;-85
2023/12/22 06:24:52;;;;;;;11.88;3.03;;;;;;;;;;6165309;23;20028;-85
2023/12/22 06:27:18;;;;;;;16.25;3.40;;;;;;;;;;6165612;23;20016;-84
2023/12/22 06:29:46;;;;;;;15.88;3.90;;;;;;;;;;6165675;23;20031;-84
2023/12/22 06:32:12;;;;;;;15.70;3.15;;;;;;;;;;6165438;23;20024;-84
2023/12/22 06:34:39;;;;;;;10.45;3.20;;;;;;;;;;6165266;23;20077;-84
2023/12/22 06:37:07;;;;;;;10.40;3.28;;;;;;;;;;6165290;23;20100;-83
2023/12/22 06:39:34;;;;;;;14.30;3.78;;;;;;;;;;6165299;23;20460;-84
2023/12/22 06:42:00;;;;;;;10.65;3.42;;;;;;;;;;6164639;23;20024;-84
2023/12/22 06:44:26;;;;;;;9.20;2.63;;;;;;;;;;6165984;23;20028;-84
2023/12/22 06:46:52;;;;;;;14.10;3.35;;;;;;;;;;6165351;23;20445;-84
2023/12/22 06:49:18;;;;;;;8.68;3.50;;;;;;;;;;6167060;23;20079;-84
2023/12/22 06:51:44;;;;;;;11.35;3.42;;;;;;;;;;6165234;23;20031;-85
2023/12/22 06:54:11;;;;;;;12.88;3.35;;;;;;;;;;6164059;23;20055;-86
2023/12/22 06:56:39;;;;;;;19.00;3.17;;;;;;;;;;6165543;23;20016;-85
2023/12/22 06:59:06;;;;;;;8.55;3.75;;;;;;;;;;6165131;23;20035;-85
2023/12/22 07:01:35;;;;;;;15.55;3.15;;;;;;;;;;6164958;23;20334;-85
2023/12/22 07:04:03;;;;;;;11.65;3.13;;;;;;;;;;6165270;23;20377;-85
2023/12/22 07:06:30;;;;;;;14.73;3.60;;;;;;;;;;6164885;23;20052;-84
2023/12/22 07:09:17;;;;;;;14.68;3.38;;;;;;;;;;6164773;23;20365;-85
2023/12/22 07:11:45;;;;;;;10.77;2.88;;;;;;;;;;6164704;23;20016;-85
2023/12/22 07:14:11;;;;;;;12.50;3.05;;;;;;;;;;6164522;23;20021;-85
2023/12/22 07:16:38;;;;;;;15.32;3.28;;;;;;;;;;6165741;23;20021;-85
2023/12/22 07:19:05;;;;;;;16.10;4.28;;;;;;;;;;6164605;23;20017;-84
2023/12/22 07:21:31;;;;;;;11.32;3.25;;;;;;;;;;6164211;23;20020;-85
2023/12/22 07:24:00;;;;;;;12.00;3.63;;;;;;;;;;6164481;23;20516;-85
2023/12/22 07:26:38;;;;;;;10.80;3.63;;;;;;;;;;6164289;23;20060;-86
2023/12/22 07:29:16;;;;;;;15.45;2.92;;;;;;;;;;6164854;23;20025;-86
2023/12/22 07:32:03;;;;;;;15.55;3.25;;;;;;;;;;6167529;23;20071;-88
2023/12/22 07:34:38;;;;;;;14.23;3.85;;;;;;;;;;6164492;23;20016;-85
2023/12/22 07:37:10;;;;;;;9.50;2.72;;;;;;;;;;6164743;23;20062;-85
2023/12/22 07:39:36;;;;;;;10.73;2.72;;;;;;;;;;6165290;23;20124;-84
2023/12/22 07:42:06;;;;;;;10.65;3.13;;;;;;;;;;6164530;23;20052;-85
2023/12/22 07:44:32;;;;;;;11.90;3.08;;;;;;;;;;6164939;23;20021;-85
2023/12/22 07:47:04;;;;;;;11.23;3.50;;;;;;;;;;6164910;23;20025;-85
2023/12/22 07:49:30;;;;;;;18.08;4.45;;;;;;;;;;6164640;23;20071;-85
2023/12/22 07:51:57;;;;;;;12.73;3.67;;;;;;;;;;6164729;23;20393;-85
2023/12/22 07:54:25;;;;;;;14.50;3.40;;;;;;;;;;6164841;23;20020;-85
2023/12/22 07:56:54;;;;;;;13.13;3.40;;;;;;;;;;6164326;23;20385;-84
2023/12/22 07:59:20;;;;;;;11.80;2.88;;;;;;;;;;6164363;23;20052;-84
2023/12/22 08:01:46;;;;;;;18.50;3.78;;;;;;;;;;6164767;23;20024;-85
2023/12/22 08:04:12;;;;;;;11.50;2.47;;;;;;;;;;6164934;23;20023;-85
2023/12/22 08:06:39;;;;;;;13.00;3.10;;;;;;;;;;6163889;23;20069;-85
2023/12/22 08:09:05;;;;;;;16.35;3.20;;;;;;;;;;6164521;23;20024;-85
2023/12/22 08:11:32;;;;;;;12.90;3.28;;;;;;;;;;6164476;23;20052;-85
2023/12/22 08:13:58;;;;;;;20.98;4.78;;;;;;;;;;6164171;23;20021;-85
2023/12/22 08:16:24;;;;;;;13.95;3.55;;;;;;;;;;6164441;23;20020;-86
2023/12/22 08:18:53;;;;;;;16.38;3.78;;;;;;;;;;6164406;23;20056;-84
2023/12/22 08:21:29;;;;;;;16.55;3.63;;;;;;;;;;6165042;23;20016;-85
2023/12/22 08:23:55;;;;;;;17.50;4.18;;;;;;;;;;6164349;23;20016;-85
2023/12/22 08:26:22;;;;;;;14.75;3.22;;;;;;;;;;6164185;23;20104;-85
2023/12/22 08:28:48;;;;;;;16.45;4.13;;;;;;;;;;6163875;23;20052;-85
2023/12/22 08:31:14;;;;;;;13.40;2.83;;;;;;;;;;6162726;23;20464;-85
2023/12/22 08:33:41;;;;;;;12.02;2.88;;;;;;;;;;6164320;23;20079;-85
2023/12/22 08:36:09;;;;;;;14.70;3.40;;;;;;;;;;6164772;23;20032;-85
2023/12/22 08:38:36;;;;;;;17.60;3.83;;;;;;;;;;6163518;23;20024;-85
2023/12/22 08:41:02;;;;;;;14.27;3.42;;;;;;;;;;6164483;23;20025;-85
2023/12/22 08:43:31;;;;;;;22.25;4.55;;;;;;;;;;6164307;23;20025;-85
2023/12/22 08:45:58;;;;;;;20.05;3.63;;;;;;;;;;6163183;23;20021;-85
2023/12/22 08:48:26;;;;;;;11.40;3.13;;;;;;;;;;6165139;23;20024;-85
2023/12/22 08:50:53;;;;;;;13.88;3.35;;;;;;;;;;6164138;23;20033;-85
2023/12/22 08:53:19;;;;;;;14.23;3.22;;;;;;;;;;6164085;23;20020;-85
2023/12/22 08:55:45;;;;;;;13.43;3.50;;;;;;;;;;6164055;23;20497;-85
2023/12/22 08:58:11;;;;;;;11.13;2.85;;;;;;;;;;6164592;23;20445;-85
2023/12/22 09:00:40;;;;;;;11.85;2.90;;;;;;;;;;6164086;23;20103;-85
2023/12/22 09:03:06;;;;;;;9.88;2.63;;;;;;;;;;6164309;23;20033;-85
2023/12/22 09:05:35;;;;;;;12.18;3.25;;;;;;;;;;6165724;23;20021;-85
2023/12/22 09:08:01;;;;;;;8.02;2.50;;;;;;;;;;6163776;23;20358;-85
2023/12/22 09:10:41;;;;;;;15.10;3.72;;;;;;;;;;6165010;23;20035;-86
2023/12/22 09:13:07;;;;;;;13.20;2.70;;;;;;;;;;6162900;23;20028;-85
2023/12/22 09:15:34;;;;;;;13.75;2.83;;;;;;;;;;6164242;23;20496;-85
2023/12/22 09:18:00;;;;;;;15.55;3.05;;;;;;;;;;6163777;23;20024;-85
2023/12/22 09:20:26;;;;;;;12.30;2.80;;;;;;;;;;6164165;23;20021;-85
2023/12/22 09:22:54;;;;;;;14.48;3.17;;;;;;;;;;6164809;23;20021;-85
2023/12/22 09:25:20;;;;;;;7.88;2.33;;;;;;;;;;6164302;23;20132;-83
2023/12/22 09:27:47;;;;;;;9.13;2.50;;;;;;;;;;6164151;23;20453;-85
2023/12/22 09:30:16;;;;;;;9.32;2.22;;;;;;;;;;6166388;23;20104;-85
2023/12/22 09:32:42;;;;;;;12.23;2.50;;;;;;;;;;6163935;23;20020;-85
2023/12/22 09:35:10;;;;;;;10.52;3.08;;;;;;;;;;6163753;23;20453;-85
2023/12/22 09:37:37;;;;;;;8.48;2.40;;;;;;;;;;6163900;23;20095;-85
2023/12/22 09:40:09;;;;;;;10.27;2.40;;;;;;;;;;6163956;23;20319;-85
2023/12/22 09:42:37;;;;;;;15.15;3.63;;;;;;;;;;6164063;23;20083;-85
2023/12/22 09:45:18;;;;;;;8.35;2.67;;;;;;;;;;6163784;23;20160;-86
2023/12/22 09:48:04;;;;;;;13.52;2.88;;;;;;;;;;6164785;23;20025;-86
2023/12/22 09:50:31;;;;;;;11.68;2.50;;;;;;;;;;6166169;23;20025;-86
2023/12/22 09:53:05;;;;;;;10.68;3.33;;;;;;;;;;6165707;23;20025;-84
2023/12/22 09:55:33;;;;;;;10.60;2.63;;;;;;;;;;6165865;23;20055;-84
2023/12/22 09:58:02;;;;;;;13.15;5.63;;;;;;;;;;6165571;23;20016;-85
2023/12/22 10:00:41;;;;;;;11.07;3.40;;;;;;;;;;6167113;23;20108;-86
2023/12/22 10:03:07;;;;;;;12.98;3.20;;;;;;;;;;6165068;23;20104;-85
2023/12/22 10:05:34;;;;;;;9.57;2.60;;;;;;;;;;6165578;23;20157;-85
2023/12/22 10:08:01;;;;;;;9.02;2.47;;;;;;;;;;6189981;23;20092;-85
2023/12/22 10:10:30;;;;;;;15.88;2.83;;;;;;;;;;6165697;23;20035;-84
2023/12/22 10:12:57;;;;;;;13.43;3.13;;;;;;;;;;6165253;23;20025;-84
2023/12/22 10:15:29;;;;;;;7.55;2.83;;;;;;;;;;6165252;23;20017;-85
2023/12/22 10:17:55;;;;;;;9.73;2.92;;;;;;;;;;6166192;23;20024;-85
2023/12/22 10:20:22;;;;;;;11.15;2.80;;;;;;;;;;6165362;23;20031;-85
2023/12/22 10:22:51;;;;;;;11.48;2.67;;;;;;;;;;6165348;23;20031;-84
2023/12/22 10:25:21;;;;;;;13.52;2.90;;;;;;;;;;6164996;23;20457;-85
2023/12/22 10:27:47;;;;;;;11.65;3.42;;;;;;;;;;6164742;23;20132;-85
2023/12/22 10:30:14;;;;;;;12.40;3.17;;;;;;;;;;6164957;23;20025;-85
2023/12/22 10:32:44;;;;;;;12.57;3.42;;;;;;;;;;6164898;23;20027;-85
2023/12/22 10:35:10;;;;;;;13.45;2.90;;;;;;;;;;6164945;23;20104;-85
2023/12/22 10:37:36;;;;;;;11.10;2.70;;;;;;;;;;6164687;23;20020;-85
2023/12/22 10:40:12;;;;;;;11.65;2.70;;;;;;;;;;6165163;23;20020;-85
2023/12/22 10:42:44;;;;;;;14.90;3.17;;;;;;;;;;6165191;23;20344;-85
2023/12/22 10:45:20;;;;;;;15.32;3.85;;;;;;;;;;6164967;23;20023;-84
2023/12/22 10:47:50;;;;;;;13.52;2.92;;;;;;;;;;6165125;23;20024;-85
2023/12/22 10:50:24;;;;;;;12.57;2.88;;;;;;;;;;6164804;23;20027;-84
2023/12/22 10:52:51;;;;;;;9.77;2.53;;;;;;;;;;6164035;23;20404;-85
2023/12/22 10:55:24;;;;;;;13.38;3.08;;;;;;;;;;6165328;23;20287;-84
2023/12/22 10:58:04;;;;;;;11.05;2.75;;;;;;;;;;6164411;23;20021;-84
2023/12/22 11:00:46;;;;;;;15.27;2.72;;;;;;;;;;6164201;23;20393;-84
2023/12/22 11:03:18;;;;;;;10.38;3.13;;;;;;;;;;6165144;23;20032;-84
2023/12/22 11:05:51;;;;;;;6.95;2.40;;;;;;;;;;6164750;23;20055;-84
2023/12/22 11:08:18;;;;;;;12.75;3.00;;;;;;;;;;6163709;23;20024;-84
2023/12/22 11:11:20;;;;;;;14.30;3.13;;;;;;;;;;6164262;23;20020;-84
2023/12/22 11:13:46;;;;;;;15.38;2.85;;;;;;;;;;6165283;23;20090;-84
2023/12/22 11:16:21;;;;;;;14.00;3.20;;;;;;;;;;6164857;23;20027;-84
2023/12/22 11:18:57;;;;;;;13.00;3.53;;;;;;;;;;6166246;23;20323;-85
2023/12/22 11:21:24;;;;;;;9.98;2.67;;;;;;;;;;6189911;23;20427;-85
2023/12/22 11:23:51;;;;;;;10.20;2.60;;;;;;;;;;6164779;23;20036;-85
2023/12/22 11:29:07;;;;;;;13.13;3.05;;;;;;;;;;6177526;23;20082;-85
2023/12/22 11:31:41;;;;;;;9.40;3.08;;;;;;;;;;6164548;23;20027;-86
2023/12/22 11:34:26;;;;;;;;;;;;;;;;;;;;;
2023/12/22 11:44:32;;;;;;;9.02;2.17;;;;;;;;;;5981162;24;20105;-87
2023/12/22 11:47:08;;;;;;;14.20;3.03;;;;;;;;;;6002108;23;20053;-86
2023/12/22 11:53:35;;;;;;;;;;;;;;;;;;;;;
2023/12/22 11:56:10;;;;;;;11.23;2.80;;;;;;;;;;6183610;23;20350;-86
2023/12/22 11:58:53;;;;;;;16.55;2.58;;;;;;;;;;6159260;23;20404;-87
2023/12/22 12:01:52;;;;;;;16.85;3.20;;;;;;;;;;6150456;23;20017;-87
2023/12/22 12:14:44;;;;;;;8.52;2.15;;;;;;;;;;6037161;23;20014;-86
2023/12/22 12:17:23;;;;;;;9.82;2.80;;;;;;;;;;6008689;23;20157;-87
2023/12/22 12:20:22;;;;;;;15.98;3.17;;;;;;;;;;6082264;23;20022;-87
2023/12/22 12:26:47;;;;;;;;;;;;;;;;;;;;;
2023/12/22 12:29:39;;;;;;;12.20;2.58;;;;;;;;;;6036612;23;20074;-86
2023/12/22 12:32:09;;;;;;;8.88;2.30;;;;;;;;;;5993163;23;20062;-85
2023/12/22 12:34:38;;;;;;;8.75;2.25;;;;;;;;;;6122083;23;20021;-85
2023/12/22 12:37:04;;;;;;;9.25;2.33;;;;;;;;;;6163553;23;20092;-85
2023/12/22 12:39:32;;;;;;;8.85;2.47;;;;;;;;;;6164284;23;20016;-85
2023/12/22 12:42:04;;;;;;;8.38;2.55;;;;;;;;;;6163849;23;20035;-85
2023/12/22 12:44:34;;;;;;;10.80;2.88;;;;;;;;;;6164672;23;20075;-85
2023/12/22 12:47:00;;;;;;;9.00;2.60;;;;;;;;;;6163908;23;20124;-85
2023/12/22 12:49:30;;;;;;;10.98;3.53;;;;;;;;;;6164442;23;20027;-85
2023/12/22 12:52:01;;;;;;;7.40;2.30;;;;;;;;;;6163449;23;20461;-86
2023/12/22 12:54:29;;;;;;;10.40;2.92;;;;;;;;;;6164511;23;20020;-85
2023/12/22 12:56:58;;;;;;;7.95;2.83;;;;;;;;;;6164083;23;20024;-85
2023/12/22 12:59:25;;;;;;;9.02;2.58;;;;;;;;;;6163884;23;20071;-86
2023/12/22 13:02:01;;;;;;;;;;;;;;;;;;;;;
2023/12/22 13:04:40;;;;;;;9.57;2.72;;;;;;;;;;6188337;23;20018;-86
2023/12/22 13:07:06;;;;;;;10.25;2.47;;;;;;;;;;6163392;23;20023;-86
2023/12/22 13:09:36;;;;;;;7.80;2.08;;;;;;;;;;6163785;23;20028;-85
2023/12/22 13:12:03;;;;;;;7.20;2.30;;;;;;;;;;6163642;23;20043;-85
2023/12/22 13:14:30;;;;;;;12.10;2.35;;;;;;;;;;6164862;23;20031;-85
2023/12/22 13:16:57;;;;;;;7.95;2.22;;;;;;;;;;6188820;23;20023;-85
2023/12/22 13:19:24;;;;;;;5.18;1.75;;;;;;;;;;6165430;23;20021;-86
2023/12/22 13:21:51;;;;;;;7.22;2.00;;;;;;;;;;6164658;23;20020;-85
2023/12/22 13:24:17;;;;;;;5.50;2.25;;;;;;;;;;6166436;23;20020;-85
2023/12/22 13:26:44;;;;;;;7.22;2.17;;;;;;;;;;6168029;23;20017;-85
2023/12/22 13:29:11;;;;;;;2.78;1.70;;;;;;;;;;6170443;23;20021;-85
2023/12/22 13:31:38;;;;;;;7.22;1.85;;;;;;;;;;6213286;23;20024;-85
2023/12/22 13:34:09;;;;;;;10.90;2.50;;;;;;;;;;6190052;23;20100;-85
2023/12/22 13:36:36;;;;;;;7.18;2.85;;;;;;;;;;6213152;23;20025;-85
2023/12/22 13:39:04;;;;;;;4.18;1.73;;;;;;;;;;6190131;23;20020;-85
2023/12/22 13:41:32;;;;;;;8.95;2.17;;;;;;;;;;6188720;23;20099;-85
2023/12/22 13:43:58;;;;;;;5.57;1.77;;;;;;;;;;6184434;23;20480;-85
2023/12/22 13:46:27;;;;;;;10.20;2.75;;;;;;;;;;6165889;23;20322;-85
2023/12/22 13:48:54;;;;;;;6.55;2.17;;;;;;;;;;6164366;23;20031;-86
2023/12/22 13:51:20;;;;;;;11.23;2.70;;;;;;;;;;6164375;23;20024;-86
2023/12/22 13:53:48;;;;;;;10.00;2.47;;;;;;;;;;6164500;23;20056;-86
2023/12/22 13:56:15;;;;;;;11.25;2.53;;;;;;;;;;6164047;23;20028;-88
2023/12/22 13:58:45;;;;;;;10.35;2.90;;;;;;;;;;6163533;23;20099;-86
2023/12/22 14:01:15;;;;;;;6.63;2.25;;;;;;;;;;6163255;23;20031;-86
2023/12/22 14:03:41;;;;;;;9.32;1.98;;;;;;;;;;6163934;23;20020;-86
2023/12/22 14:06:09;;;;;;;9.60;2.90;;;;;;;;;;6163583;23;20021;-86
2023/12/22 14:08:35;;;;;;;8.40;2.35;;;;;;;;;;6163648;23;20475;-85
2023/12/22 14:11:01;;;;;;;9.40;2.42;;;;;;;;;;6188558;23;20123;-85
2023/12/22 14:13:28;;;;;;;10.55;2.67;;;;;;;;;;6188486;23;20098;-86
2023/12/22 14:15:54;;;;;;;11.13;3.15;;;;;;;;;;6163566;23;20527;-85
2023/12/22 14:18:20;;;;;;;12.27;2.85;;;;;;;;;;6163516;23;20021;-85
2023/12/22 14:20:46;;;;;;;12.57;2.78;;;;;;;;;;6163520;23;20469;-85
2023/12/22 14:23:16;;;;;;;12.40;2.95;;;;;;;;;;6163812;23;20020;-85
2023/12/22 14:25:42;;;;;;;12.98;2.65;;;;;;;;;;6163538;23;20021;-85
2023/12/22 14:28:09;;;;;;;8.05;2.40;;;;;;;;;;6164558;23;20033;-85
2023/12/22 14:30:37;;;;;;;15.98;3.08;;;;;;;;;;6162961;23;20017;-87
2023/12/22 14:33:03;;;;;;;16.30;2.65;;;;;;;;;;6163448;23;20027;-87
2023/12/22 14:35:32;;;;;;;17.05;3.25;;;;;;;;;;6163384;23;20017;-87
2023/12/22 14:38:03;;;;;;;8.48;2.40;;;;;;;;;;6163443;23;20017;-87
2023/12/22 14:40:30;;;;;;;9.70;2.10;;;;;;;;;;6163400;23;20096;-87
2023/12/22 14:42:56;;;;;;;11.73;2.70;;;;;;;;;;6163223;23;20023;-87
2023/12/22 14:45:25;;;;;;;14.82;3.78;;;;;;;;;;6163217;23;20021;-87
2023/12/22 14:47:54;;;;;;;6.60;1.95;;;;;;;;;;6107865;23;1296881;-87
2023/12/22 14:50:23;;;;;;;5.57;1.90;;;;;;;;;;6164647;23;20096;-87
2023/12/22 14:52:57;;;;;;;6.68;2.30;;;;;;;;;;6165647;23;20020;-87
2023/12/22 14:55:27;;;;;;;7.63;2.17;;;;;;;;;;6165446;23;20025;-87
2023/12/22 14:58:03;;;;;;;9.00;2.13;;;;;;;;;;6165033;23;20337;-87
2023/12/22 15:00:40;;;;;;;9.18;2.00;;;;;;;;;;6164682;23;20021;-87
2023/12/22 15:03:29;;;;;;;6.28;1.92;;;;;;;;;;6168093;23;20148;-86
2023/12/22 15:06:00;;;;;;;7.97;2.58;;;;;;;;;;6165298;23;20052;-87
2023/12/22 15:08:35;;;;;;;9.95;2.95;;;;;;;;;;6165224;23;20021;-86
2023/12/22 15:13:50;;;;;;;13.15;2.78;;;;;;;;;;6173194;23;20103;-86